createdAt,value
2019-03-01T00:01:36.199Z,70.30
2019-03-01T00:05:54.850Z,70.90
2019-03-01T00:10:23.840Z,71.50
2019-03-01T00:15:05.817Z,71.60
2019-03-01T00:19:35.912Z,72.00
2019-03-01T00:23:51.888Z,73.10
2019-03-01T00:28:10.903Z,73.10
2019-03-01T00:32:41.860Z,72.90
2019-03-01T00:37:09.714Z,72.80
2019-03-01T00:41:25.705Z,73.40
2019-03-01T00:45:28.708Z,74.40
2019-03-01T00:49:31.774Z,73.90
2019-03-01T00:53:34.767Z,73.80
2019-03-01T00:57:37.769Z,74.00
2019-03-01T01:01:40.770Z,74.00
2019-03-01T01:05:46.288Z,73.40
2019-03-01T01:09:49.333Z,73.20
2019-03-01T01:13:52.333Z,73.10
2019-03-01T01:17:55.331Z,72.40
2019-03-01T01:21:58.366Z,72.30
2019-03-01T01:26:01.367Z,72.40
2019-03-01T01:30:08.227Z,72.10
2019-03-01T01:34:11.304Z,72.10
2019-03-01T01:38:14.310Z,71.80
2019-03-01T01:42:17.642Z,72.00
2019-03-01T01:46:20.639Z,71.00
2019-03-01T01:50:23.631Z,71.10
2019-03-01T01:54:26.631Z,71.20
2019-03-01T01:58:29.632Z,71.40
2019-03-01T02:02:32.635Z,71.20
2019-03-01T02:06:37.493Z,71.00
2019-03-01T02:10:40.504Z,71.00
2019-03-01T02:14:43.515Z,71.20
2019-03-01T02:18:46.519Z,71.20
2019-03-01T02:22:49.520Z,70.80
2019-03-01T02:27:13.003Z,70.60
2019-03-01T02:31:16.448Z,70.80
2019-03-01T02:35:19.517Z,71.00
2019-03-01T02:39:22.620Z,72.30
2019-03-01T02:43:25.733Z,73.20
2019-03-01T02:47:28.732Z,73.80
2019-03-01T02:51:31.830Z,73.40
2019-03-01T02:55:34.814Z,73.70
2019-03-01T02:59:37.809Z,73.90
2019-03-01T03:03:40.911Z,73.70
2019-03-01T03:07:47.523Z,74.50
2019-03-01T03:11:50.517Z,74.10
2019-03-01T03:15:54.087Z,74.50
2019-03-01T03:19:57.101Z,74.70
2019-03-01T03:24:00.112Z,74.80
2019-03-01T03:28:03.536Z,75.60
2019-03-01T03:32:06.850Z,75.20
2019-03-01T03:36:09.907Z,75.10
2019-03-01T03:40:14.216Z,75.30
2019-03-01T03:44:17.219Z,75.20
2019-03-01T03:48:20.272Z,75.30
2019-03-01T03:52:23.276Z,75.60
2019-03-01T03:56:26.332Z,75.90
2019-03-01T04:00:29.441Z,75.60
2019-03-01T04:04:32.608Z,75.60
2019-03-01T04:08:37.138Z,76.20
2019-03-01T04:12:40.178Z,76.10
2019-03-01T04:16:43.173Z,76.70
2019-03-01T04:20:46.192Z,77.30
2019-03-01T04:24:49.196Z,77.00
2019-03-01T04:28:52.212Z,76.50
2019-03-01T04:32:55.203Z,76.90
2019-03-01T04:36:58.261Z,76.50
2019-03-01T04:41:01.356Z,76.50
2019-03-01T04:45:07.363Z,75.90
2019-03-01T04:49:10.359Z,75.90
2019-03-01T04:53:13.363Z,75.80
2019-03-01T04:57:16.424Z,76.20
2019-03-01T05:01:19.432Z,76.10
2019-03-01T05:05:22.431Z,76.50
2019-03-01T05:09:27.419Z,76.60
2019-03-01T05:13:30.459Z,77.40
2019-03-01T05:17:33.469Z,77.10
2019-03-01T05:21:36.464Z,77.00
2019-03-01T05:25:39.456Z,78.00
2019-03-01T05:29:42.511Z,77.80
2019-03-01T05:33:45.650Z,77.80
2019-03-01T05:37:48.655Z,77.90
2019-03-01T05:41:51.664Z,79.40
2019-03-01T05:45:54.668Z,78.30
2019-03-01T05:49:57.669Z,78.10
2019-03-01T05:54:00.672Z,78.10
2019-03-01T05:58:19.464Z,78.50
2019-03-01T06:02:42.888Z,77.30
2019-03-01T06:06:58.599Z,76.60
2019-03-01T06:11:07.214Z,76.00
2019-03-01T06:15:23.096Z,76.20
2019-03-01T06:19:35.779Z,76.50
2019-03-01T06:23:48.786Z,76.40
2019-03-01T06:28:04.769Z,76.40
2019-03-01T06:32:20.904Z,76.40
2019-03-01T06:36:50.406Z,76.50
2019-03-01T06:41:20.247Z,76.90
2019-03-01T06:45:27.067Z,76.90
2019-03-01T06:49:31.967Z,76.90
2019-03-01T06:53:34.977Z,76.90
2019-03-01T06:57:37.978Z,77.40
2019-03-01T07:01:41.283Z,77.40
2019-03-01T07:05:44.638Z,77.10
2019-03-01T07:09:47.636Z,76.90
2019-03-01T07:13:51.111Z,76.90
2019-03-01T07:17:54.177Z,77.30
2019-03-01T07:21:57.184Z,76.60
2019-03-01T07:26:00.178Z,76.50
2019-03-01T07:30:06.394Z,75.90
2019-03-01T07:34:09.434Z,76.40
2019-03-01T07:38:12.546Z,76.90
2019-03-01T07:42:15.637Z,75.70
2019-03-01T07:46:18.639Z,75.60
2019-03-01T07:50:21.771Z,75.10
2019-03-01T07:54:25.254Z,75.00
2019-03-01T07:58:28.349Z,75.50
2019-03-01T08:02:31.474Z,75.20
2019-03-01T08:06:34.480Z,75.40
2019-03-01T08:10:37.487Z,75.80
2019-03-01T08:14:41.427Z,75.20
2019-03-01T08:18:45.263Z,75.10
2019-03-01T08:22:49.679Z,73.50
2019-03-01T08:26:53.027Z,72.60
2019-03-01T08:30:56.025Z,72.50
2019-03-01T08:34:59.032Z,72.40
2019-03-01T08:39:05.765Z,71.30
2019-03-01T08:43:12.991Z,71.50
2019-03-01T08:47:14.246Z,70.90
2019-03-01T08:51:17.647Z,71.10
2019-03-01T08:55:25.664Z,70.90
2019-03-01T08:59:28.669Z,69.40
2019-03-01T09:03:56.480Z,69.50
2019-03-01T09:07:59.483Z,69.10
2019-03-01T09:12:02.492Z,69.20
2019-03-01T09:16:06.725Z,69.80
2019-03-01T09:20:11.936Z,69.80
2019-03-01T09:24:14.949Z,69.70
2019-03-01T09:28:17.958Z,68.50
2019-03-01T09:32:21.021Z,68.60
2019-03-01T09:36:26.011Z,68.00
2019-03-01T09:40:29.723Z,67.60
2019-03-01T09:44:34.518Z,65.00
2019-03-01T09:48:38.237Z,63.60
2019-03-01T09:52:41.235Z,64.10
2019-03-01T09:56:44.245Z,64.70
2019-03-01T10:01:10.815Z,65.00
2019-03-01T10:05:13.881Z,64.50
2019-03-01T10:09:16.980Z,65.10
2019-03-01T10:13:21.389Z,65.80
2019-03-01T10:17:26.626Z,66.00
2019-03-01T10:21:29.633Z,66.20
2019-03-01T10:25:32.697Z,66.20
2019-03-01T10:29:35.683Z,65.20
2019-03-01T10:33:38.748Z,66.00
2019-03-01T10:37:42.153Z,67.30
2019-03-01T10:41:45.177Z,68.70
2019-03-01T10:45:48.188Z,70.00
2019-03-01T10:49:51.259Z,70.40
2019-03-01T10:53:54.359Z,70.30
2019-03-01T10:57:57.432Z,66.90
2019-03-01T11:02:00.577Z,65.30
2019-03-01T11:06:03.821Z,64.00
2019-03-01T11:10:28.141Z,63.00
2019-03-01T11:14:31.158Z,61.20
2019-03-01T11:18:34.609Z,61.10
2019-03-01T11:22:37.679Z,60.70
2019-03-01T11:26:40.777Z,61.30
2019-03-01T11:30:43.907Z,60.40
2019-03-01T11:34:46.969Z,60.20
2019-03-01T11:38:49.983Z,59.60
2019-03-01T11:42:52.997Z,58.80
2019-03-01T11:46:55.996Z,58.50
2019-03-01T11:50:59.053Z,57.90
2019-03-01T11:55:04.173Z,57.50
2019-03-01T11:59:07.176Z,59.10
2019-03-01T12:03:10.196Z,60.30
2019-03-01T12:07:13.314Z,60.70
2019-03-01T12:11:16.408Z,57.70
2019-03-01T12:15:19.722Z,58.70
2019-03-01T12:19:24.465Z,63.10
2019-03-01T12:23:27.540Z,55.70
2019-03-01T12:27:30.566Z,54.80
2019-03-01T12:31:33.644Z,56.20
2019-03-01T12:35:36.752Z,58.90
2019-03-01T12:39:39.756Z,60.00
2019-03-01T12:43:42.840Z,60.70
2019-03-01T12:47:45.843Z,61.00
2019-03-01T12:51:48.858Z,62.50
2019-03-01T12:55:51.941Z,63.70
2019-03-01T12:59:54.948Z,64.70
2019-03-01T13:03:58.001Z,65.50
2019-03-01T13:08:01.018Z,67.60
2019-03-01T13:12:04.007Z,68.30
2019-03-01T13:16:07.116Z,68.00
2019-03-01T13:20:15.210Z,68.10
2019-03-01T13:24:18.216Z,67.00
2019-03-01T13:28:21.219Z,66.30
2019-03-01T13:32:24.242Z,65.90
2019-03-01T13:36:27.239Z,65.30
2019-03-01T13:40:30.341Z,65.20
2019-03-01T13:44:36.156Z,64.10
2019-03-01T13:48:38.347Z,63.70
2019-03-01T13:52:41.684Z,64.70
2019-03-01T13:56:44.788Z,63.10
2019-03-01T14:00:48.747Z,63.60
2019-03-01T14:04:52.729Z,62.90
2019-03-01T14:08:55.760Z,62.00
2019-03-01T14:12:58.923Z,60.80
2019-03-01T14:17:02.007Z,60.00
2019-03-01T14:21:05.591Z,59.60
2019-03-01T14:25:12.934Z,59.70
2019-03-01T14:29:16.196Z,59.80
2019-03-01T14:33:20.182Z,59.10
2019-03-01T14:37:23.279Z,58.40
2019-03-01T14:41:26.279Z,58.20
2019-03-01T14:45:30.901Z,58.20
2019-03-01T14:49:33.969Z,59.50
2019-03-01T14:53:37.095Z,59.80
2019-03-01T14:57:43.118Z,59.90
2019-03-01T15:01:50.654Z,60.00
2019-03-01T15:05:53.677Z,60.10
2019-03-01T15:09:57.017Z,60.20
2019-03-01T15:14:01.399Z,59.90
2019-03-01T15:18:04.677Z,60.30
2019-03-01T15:22:09.686Z,60.90
2019-03-01T15:26:13.964Z,60.40
2019-03-01T15:30:17.180Z,60.60
2019-03-01T15:34:23.499Z,61.10
2019-03-01T15:38:27.647Z,61.40
2019-03-01T15:42:30.243Z,60.50
2019-03-01T15:46:33.294Z,60.60
2019-03-01T15:50:36.615Z,60.80
2019-03-01T15:54:39.645Z,60.70
2019-03-01T15:58:42.648Z,61.10
2019-03-01T16:02:45.699Z,60.90
2019-03-01T16:06:49.035Z,61.30
2019-03-01T16:10:52.155Z,61.20
2019-03-01T16:14:57.345Z,62.10
2019-03-01T16:19:00.208Z,62.10
2019-03-01T16:23:06.129Z,62.90
2019-03-01T16:27:12.047Z,63.90
2019-03-01T16:31:14.238Z,63.20
2019-03-01T16:35:19.556Z,63.30
2019-03-01T16:39:23.808Z,63.90
2019-03-01T16:43:28.545Z,64.30
2019-03-01T16:47:32.556Z,64.90
2019-03-01T16:51:35.564Z,64.50
2019-03-01T16:55:38.564Z,64.90
2019-03-01T16:59:42.828Z,65.80
2019-03-01T17:03:49.571Z,67.00
2019-03-01T17:07:51.505Z,66.10
2019-03-01T17:11:54.500Z,67.70
2019-03-01T17:15:57.496Z,69.50
2019-03-01T17:20:02.559Z,65.50
2019-03-01T17:24:07.580Z,65.70
2019-03-01T17:28:10.615Z,65.30
2019-03-01T17:32:13.611Z,65.30
2019-03-01T17:36:17.829Z,65.10
2019-03-01T17:40:21.248Z,64.80
2019-03-01T17:44:24.345Z,64.80
2019-03-01T17:48:27.347Z,65.10
2019-03-01T17:52:33.504Z,64.90
2019-03-01T17:56:36.698Z,65.10
2019-03-01T18:00:43.904Z,64.80
2019-03-01T18:04:47.267Z,64.70
2019-03-01T18:08:50.267Z,64.50
2019-03-01T18:12:56.173Z,64.60
2019-03-01T18:17:00.412Z,64.30
2019-03-01T18:21:03.211Z,63.90
2019-03-01T18:25:12.433Z,63.80
2019-03-01T18:29:15.451Z,63.90
2019-03-01T18:33:21.023Z,64.60
2019-03-01T18:37:23.362Z,63.90
2019-03-01T18:41:27.478Z,64.30
2019-03-01T18:45:31.265Z,63.70
2019-03-01T18:49:34.347Z,63.70
2019-03-01T18:53:37.348Z,63.70
2019-03-01T18:57:40.360Z,64.20
2019-03-01T19:01:46.436Z,64.10
2019-03-01T19:05:48.273Z,64.30
2019-03-01T19:09:52.129Z,64.40
2019-03-01T19:13:58.586Z,64.40
2019-03-01T19:18:02.072Z,64.40
2019-03-01T19:22:07.120Z,64.50
2019-03-01T19:26:11.323Z,64.50
2019-03-01T19:30:16.551Z,65.10
2019-03-01T19:34:19.884Z,66.00
2019-03-01T19:38:25.065Z,67.00
2019-03-01T19:42:29.519Z,67.30
2019-03-01T19:46:33.141Z,67.40
2019-03-01T19:50:36.196Z,67.60
2019-03-01T19:54:39.208Z,67.80
2019-03-01T19:58:44.161Z,68.10
2019-03-01T20:02:47.133Z,68.40
2019-03-01T20:06:50.137Z,68.10
2019-03-01T20:10:53.219Z,68.50
2019-03-01T20:14:56.218Z,69.00
2019-03-01T20:18:59.220Z,69.10
2019-03-01T20:23:02.229Z,69.50
2019-03-01T20:27:06.224Z,70.50
2019-03-01T20:31:09.228Z,70.60
2019-03-01T20:35:14.043Z,70.20
2019-03-01T20:39:17.265Z,70.30
2019-03-01T20:43:20.260Z,69.40
2019-03-01T20:47:23.267Z,69.80
2019-03-01T20:51:26.869Z,69.90
2019-03-01T20:55:33.118Z,69.80
2019-03-01T20:59:35.967Z,69.30
2019-03-01T21:03:38.971Z,69.20
2019-03-01T21:07:43.387Z,69.20
2019-03-01T21:11:46.386Z,69.30
2019-03-01T21:15:49.388Z,68.20
2019-03-01T21:19:52.435Z,68.60
2019-03-01T21:23:55.410Z,68.60
2019-03-01T21:28:00.946Z,67.30
2019-03-01T21:32:04.467Z,67.50
2019-03-01T21:36:07.475Z,66.50
2019-03-01T21:40:12.639Z,66.60
2019-03-01T21:44:15.827Z,66.10
2019-03-01T21:48:21.963Z,65.60
2019-03-01T21:52:26.550Z,64.90
2019-03-01T21:56:28.735Z,64.80
2019-03-01T22:00:32.037Z,65.10
2019-03-01T22:04:37.360Z,65.10
2019-03-01T22:08:40.028Z,64.10
2019-03-01T22:12:43.049Z,64.00
2019-03-01T22:16:46.129Z,63.20
2019-03-01T22:20:49.245Z,64.10
2019-03-01T22:24:52.562Z,62.70
2019-03-01T22:28:56.083Z,62.20
2019-03-01T22:32:59.087Z,62.20
2019-03-01T22:37:02.184Z,62.30
2019-03-01T22:41:05.247Z,62.10
2019-03-01T22:45:15.387Z,62.30
2019-03-01T22:49:18.413Z,61.00
2019-03-01T22:53:21.422Z,60.50
2019-03-01T22:57:25.942Z,61.90
2019-03-01T23:01:32.793Z,62.10
2019-03-01T23:05:39.172Z,62.30
2019-03-01T23:09:42.673Z,60.40
2019-03-01T23:13:46.267Z,61.40
2019-03-01T23:17:49.318Z,60.60
2019-03-01T23:21:52.422Z,60.80
2019-03-01T23:25:55.425Z,61.20
2019-03-01T23:30:00.412Z,61.30
2019-03-01T23:34:03.718Z,60.80
2019-03-01T23:38:11.472Z,60.80
2019-03-01T23:42:13.314Z,60.60
2019-03-01T23:46:16.324Z,60.40
2019-03-01T23:50:19.329Z,61.60
2019-03-01T23:54:22.340Z,60.40
2019-03-01T23:58:25.351Z,60.60
